createdAt,value
2023-09-30T00:00:22.090Z,4.00
2023-09-30T00:01:16.061Z,4.40
2023-09-30T00:01:50.953Z,4.20
2023-09-30T00:02:24.928Z,4.40
2023-09-30T00:02:59.267Z,4.40
2023-09-30T00:03:33.244Z,4.50
2023-09-30T00:04:08.502Z,4.60
2023-09-30T00:04:42.180Z,4.50
2023-09-30T00:05:16.383Z,4.60
2023-09-30T00:05:49.716Z,4.40
2023-09-30T00:06:23.249Z,4.50
2023-09-30T00:06:56.740Z,4.40
2023-09-30T00:07:30.239Z,4.30
2023-09-30T00:08:04.544Z,5.00
2023-09-30T00:08:40.546Z,5.20
2023-09-30T00:09:14.864Z,4.60
2023-09-30T00:09:48.521Z,4.60
2023-09-30T00:10:22.002Z,4.80
2023-09-30T00:10:56.021Z,4.60
2023-09-30T00:11:29.306Z,4.70
2023-09-30T00:12:03.233Z,5.10
2023-09-30T00:12:38.837Z,4.80
2023-09-30T00:13:15.991Z,4.20
2023-09-30T00:13:52.680Z,4.20
2023-09-30T00:14:27.404Z,4.50
2023-09-30T00:15:00.873Z,4.60
2023-09-30T00:15:35.132Z,4.50
2023-09-30T00:16:08.514Z,5.00
2023-09-30T00:16:42.033Z,4.70
2023-09-30T00:17:16.444Z,4.70
2023-09-30T00:17:50.010Z,5.30
2023-09-30T00:18:23.495Z,5.20
2023-09-30T00:18:57.194Z,5.20
2023-09-30T00:19:30.930Z,5.00
2023-09-30T00:20:05.457Z,5.00
2023-09-30T00:20:38.853Z,5.30
2023-09-30T00:21:12.954Z,5.10
2023-09-30T00:21:46.520Z,5.10
2023-09-30T00:22:19.960Z,5.20
2023-09-30T00:22:53.262Z,5.60
2023-09-30T00:23:26.677Z,5.50
2023-09-30T00:24:00.227Z,5.30
2023-09-30T00:24:33.832Z,5.20
2023-09-30T00:25:07.887Z,5.60
2023-09-30T00:25:41.260Z,5.60
2023-09-30T00:26:15.591Z,5.60
2023-09-30T00:26:52.018Z,5.50
2023-09-30T00:27:25.566Z,5.80
2023-09-30T00:27:58.925Z,5.50
2023-09-30T00:28:32.217Z,5.60
2023-09-30T00:29:06.425Z,5.60
2023-09-30T00:29:40.021Z,5.60
2023-09-30T00:30:13.764Z,5.60
2023-09-30T00:30:49.079Z,6.00
2023-09-30T00:31:22.888Z,5.30
2023-09-30T00:31:56.269Z,5.60
2023-09-30T00:32:29.930Z,5.40
2023-09-30T00:33:04.429Z,5.50
2023-09-30T00:33:38.438Z,5.70
2023-09-30T00:34:11.891Z,5.50
2023-09-30T00:34:46.110Z,5.30
2023-09-30T00:35:19.460Z,5.40
2023-09-30T00:35:52.858Z,5.30
2023-09-30T00:36:26.507Z,5.50
2023-09-30T00:36:59.790Z,5.20
2023-09-30T00:37:33.887Z,5.50
2023-09-30T00:38:07.277Z,5.10
2023-09-30T00:38:41.440Z,5.40
2023-09-30T00:39:14.900Z,5.60
2023-09-30T00:39:48.387Z,5.50
2023-09-30T00:40:21.718Z,5.50
2023-09-30T00:40:55.188Z,5.60
2023-09-30T00:41:28.652Z,5.30
2023-09-30T00:42:02.040Z,5.30
2023-09-30T00:42:35.590Z,5.70
2023-09-30T00:43:19.794Z,5.70
2023-09-30T00:43:53.212Z,5.40
2023-09-30T00:44:28.155Z,5.00
2023-09-30T00:45:06.369Z,5.70
2023-09-30T00:45:40.179Z,5.70
2023-09-30T00:46:49.577Z,5.40
2023-09-30T00:47:24.307Z,5.40
2023-09-30T00:47:58.050Z,5.50
2023-09-30T00:48:31.876Z,5.60
2023-09-30T00:49:05.547Z,5.70
2023-09-30T00:49:40.009Z,6.00
2023-09-30T00:50:14.812Z,5.60
2023-09-30T00:50:48.289Z,6.20
2023-09-30T00:51:22.658Z,6.00
2023-09-30T00:51:57.059Z,6.00
2023-09-30T00:52:34.552Z,6.30
2023-09-30T00:53:08.966Z,6.10
2023-09-30T00:53:45.709Z,5.80
2023-09-30T00:54:20.501Z,5.90
2023-09-30T00:54:56.392Z,5.70
2023-09-30T00:55:29.980Z,6.00
2023-09-30T00:56:03.927Z,5.80
2023-09-30T00:56:44.780Z,6.40
2023-09-30T00:57:21.023Z,5.70
2023-09-30T00:57:54.930Z,6.00
2023-09-30T00:58:30.325Z,6.30
2023-09-30T00:59:05.397Z,5.70
2023-09-30T00:59:40.662Z,6.10
2023-09-30T01:00:14.794Z,6.60
2023-09-30T01:00:48.676Z,6.00
2023-09-30T01:01:23.591Z,6.20
2023-09-30T01:02:00.380Z,6.10
2023-09-30T01:02:36.292Z,6.30
2023-09-30T01:03:13.419Z,6.20
2023-09-30T01:03:48.258Z,6.30
2023-09-30T01:04:22.641Z,6.40
2023-09-30T01:04:57.295Z,6.20
2023-09-30T01:05:31.839Z,6.20
2023-09-30T01:06:05.468Z,6.30
2023-09-30T01:06:39.465Z,6.00
2023-09-30T01:07:12.910Z,6.10
2023-09-30T01:07:46.397Z,6.40
2023-09-30T01:08:21.369Z,6.30
2023-09-30T01:08:55.241Z,6.90
2023-09-30T01:09:29.265Z,6.60
2023-09-30T01:10:03.896Z,6.40
2023-09-30T01:10:37.360Z,6.40
2023-09-30T01:11:10.861Z,6.20
2023-09-30T01:11:45.765Z,6.30
2023-09-30T01:12:19.367Z,6.10
2023-09-30T01:12:52.797Z,6.60
2023-09-30T01:13:34.341Z,6.40
2023-09-30T01:14:41.921Z,7.20
2023-09-30T01:15:15.738Z,6.40
2023-09-30T01:15:49.148Z,6.40
2023-09-30T01:16:23.127Z,6.50
2023-09-30T01:16:57.311Z,6.70
2023-09-30T01:17:30.926Z,6.60
2023-09-30T01:18:05.426Z,6.20
2023-09-30T01:18:41.521Z,6.30
2023-09-30T01:19:15.125Z,6.30
2023-09-30T01:19:48.583Z,6.90
2023-09-30T01:20:23.565Z,6.60
2023-09-30T01:20:57.980Z,6.60
2023-09-30T01:21:35.758Z,6.60
2023-09-30T01:22:11.290Z,6.70
2023-09-30T01:22:46.800Z,6.40
2023-09-30T01:23:20.690Z,7.00
2023-09-30T01:23:54.061Z,7.20
2023-09-30T01:24:28.605Z,6.90
2023-09-30T01:25:01.988Z,6.60
2023-09-30T01:25:36.401Z,7.10
2023-09-30T01:26:14.076Z,6.40
2023-09-30T01:26:47.422Z,6.90
2023-09-30T01:27:21.053Z,6.90
2023-09-30T01:27:55.309Z,6.60
2023-09-30T01:28:28.626Z,7.00
2023-09-30T01:29:01.912Z,6.70
2023-09-30T01:29:36.290Z,6.90
2023-09-30T01:30:12.471Z,6.90
2023-09-30T01:30:46.638Z,6.40
2023-09-30T01:31:20.044Z,6.60
2023-09-30T01:31:53.646Z,6.60
2023-09-30T01:32:27.348Z,6.50
2023-09-30T01:33:01.899Z,6.60
2023-09-30T01:33:35.661Z,6.50
2023-09-30T01:34:12.100Z,6.50
2023-09-30T01:34:45.596Z,6.90
2023-09-30T01:35:19.008Z,6.90
2023-09-30T01:35:52.642Z,6.70
2023-09-30T01:36:26.131Z,6.80
2023-09-30T01:36:59.592Z,6.50
2023-09-30T01:37:33.446Z,6.20
2023-09-30T01:38:06.931Z,6.20
2023-09-30T01:38:40.412Z,6.40
2023-09-30T01:39:15.827Z,7.00
2023-09-30T01:39:51.677Z,6.10
2023-09-30T01:40:25.056Z,6.50
2023-09-30T01:41:00.892Z,6.60
2023-09-30T01:41:34.977Z,6.40
2023-09-30T01:42:08.388Z,6.30
2023-09-30T01:42:42.063Z,6.20
2023-09-30T01:43:16.593Z,6.20
2023-09-30T01:43:50.384Z,6.20
2023-09-30T01:44:23.780Z,6.50
2023-09-30T01:44:58.308Z,6.60
2023-09-30T01:45:31.776Z,6.70
2023-09-30T01:46:06.801Z,6.60
2023-09-30T01:46:40.825Z,6.30
2023-09-30T01:47:14.239Z,6.50
2023-09-30T01:47:47.813Z,6.60
2023-09-30T01:48:21.381Z,6.60
2023-09-30T01:48:54.883Z,6.60
2023-09-30T01:51:18.054Z,6.70
2023-09-30T01:51:51.701Z,7.10
2023-09-30T01:52:25.611Z,6.70
2023-09-30T01:52:59.068Z,6.90
2023-09-30T01:53:32.592Z,7.00
2023-09-30T01:54:06.258Z,7.00
2023-09-30T01:54:39.929Z,6.60
2023-09-30T01:55:13.662Z,7.20
2023-09-30T01:55:47.170Z,7.10
2023-09-30T01:56:21.468Z,6.90
2023-09-30T01:56:55.276Z,6.70
2023-09-30T01:57:28.700Z,7.00
2023-09-30T01:58:02.208Z,6.70
2023-09-30T01:58:35.811Z,6.50
2023-09-30T01:59:09.211Z,6.80
2023-09-30T01:59:42.673Z,6.70
2023-09-30T02:00:16.138Z,7.20
2023-09-30T02:00:49.632Z,6.80
2023-09-30T02:01:23.609Z,7.00
2023-09-30T02:01:58.221Z,7.60
2023-09-30T02:02:32.457Z,6.40
2023-09-30T02:03:06.225Z,6.90
2023-09-30T02:03:39.912Z,7.10
2023-09-30T02:04:16.851Z,7.20
2023-09-30T02:04:50.347Z,7.30
2023-09-30T02:05:24.718Z,6.90
2023-09-30T02:06:01.029Z,7.30
2023-09-30T02:06:35.129Z,7.00
2023-09-30T02:07:08.744Z,6.90
2023-09-30T02:07:42.329Z,7.20
2023-09-30T02:08:16.975Z,7.20
2023-09-30T02:08:50.728Z,7.20
2023-09-30T02:09:24.403Z,6.70
2023-09-30T02:09:59.129Z,7.20
2023-09-30T02:10:34.698Z,7.40
2023-09-30T02:11:08.310Z,6.90
2023-09-30T02:11:42.802Z,7.40
2023-09-30T02:12:16.465Z,7.10
2023-09-30T02:12:50.766Z,7.20
2023-09-30T02:13:24.368Z,7.10
2023-09-30T02:13:58.207Z,7.30
2023-09-30T02:14:33.578Z,7.10
2023-09-30T02:15:08.633Z,7.80
2023-09-30T02:15:45.266Z,7.40
2023-09-30T02:16:18.823Z,8.00
2023-09-30T02:16:52.315Z,7.30
2023-09-30T02:17:26.066Z,7.20
2023-09-30T02:18:01.796Z,6.80
2023-09-30T02:18:35.653Z,7.80
2023-09-30T02:19:12.445Z,7.10
2023-09-30T02:19:46.424Z,6.70
2023-09-30T02:20:28.257Z,7.90
2023-09-30T02:21:01.806Z,7.80
2023-09-30T02:21:37.138Z,8.10
2023-09-30T02:22:10.568Z,7.50
2023-09-30T02:22:45.246Z,7.90
2023-09-30T02:23:20.319Z,7.80
2023-09-30T02:23:56.788Z,6.70
2023-09-30T02:24:30.620Z,7.40
2023-09-30T02:25:08.672Z,7.20
2023-09-30T02:25:43.341Z,7.60
2023-09-30T02:26:17.246Z,7.60
2023-09-30T02:26:50.712Z,7.20
2023-09-30T02:27:24.172Z,7.80
2023-09-30T02:27:58.550Z,7.70
2023-09-30T02:28:33.763Z,7.80
2023-09-30T02:29:09.034Z,8.00
2023-09-30T02:29:42.712Z,7.60
2023-09-30T02:30:17.615Z,7.60
2023-09-30T02:30:51.471Z,7.80
2023-09-30T02:31:25.400Z,7.40
2023-09-30T02:31:59.694Z,7.40
2023-09-30T02:32:34.955Z,7.90
2023-09-30T02:33:08.686Z,8.30
2023-09-30T02:33:42.607Z,8.40
2023-09-30T02:34:16.418Z,8.00
2023-09-30T02:34:49.935Z,8.20
2023-09-30T02:35:23.579Z,8.10
2023-09-30T02:35:57.213Z,8.40
2023-09-30T02:36:30.932Z,7.70
2023-09-30T02:37:04.623Z,8.80
2023-09-30T02:37:38.621Z,8.40
2023-09-30T02:38:12.544Z,9.00
2023-09-30T02:38:47.786Z,8.30
2023-09-30T02:39:21.358Z,9.00
2023-09-30T02:39:55.008Z,9.40
2023-09-30T02:40:28.796Z,9.50
2023-09-30T02:41:04.264Z,9.00
2023-09-30T02:41:38.923Z,9.10
2023-09-30T02:42:12.516Z,9.30
2023-09-30T02:42:46.005Z,8.70
2023-09-30T02:43:19.390Z,8.50
2023-09-30T02:43:52.757Z,8.60
2023-09-30T02:44:26.193Z,9.40
2023-09-30T02:45:02.853Z,9.10
2023-09-30T02:45:39.536Z,9.00
2023-09-30T02:46:13.940Z,9.00
2023-09-30T02:46:47.468Z,9.00
2023-09-30T02:47:21.608Z,8.90
2023-09-30T02:47:55.186Z,9.20
2023-09-30T02:48:29.306Z,8.70
2023-09-30T02:49:03.806Z,8.40
2023-09-30T02:49:38.401Z,8.70
2023-09-30T02:50:17.829Z,8.90
2023-09-30T02:50:51.200Z,8.10
2023-09-30T02:51:24.943Z,8.70
2023-09-30T02:51:58.362Z,8.90
2023-09-30T02:52:32.422Z,8.90
2023-09-30T02:53:05.876Z,9.20
2023-09-30T02:53:40.007Z,8.60
2023-09-30T02:54:16.835Z,7.70
2023-09-30T02:54:50.574Z,8.60
2023-09-30T02:55:24.059Z,9.70
2023-09-30T02:56:01.315Z,8.60
2023-09-30T02:56:35.264Z,8.70
2023-09-30T02:57:10.920Z,9.10
2023-09-30T02:57:45.482Z,7.70
2023-09-30T02:58:19.651Z,8.60
2023-09-30T02:58:54.250Z,9.00
2023-09-30T02:59:28.829Z,8.90
2023-09-30T03:00:13.976Z,9.30
2023-09-30T03:00:50.937Z,9.10
2023-09-30T03:01:25.116Z,8.70
2023-09-30T03:01:58.909Z,9.60
2023-09-30T03:02:32.533Z,10.10
2023-09-30T03:03:06.117Z,9.70
2023-09-30T03:03:41.227Z,9.50
2023-09-30T03:04:14.751Z,10.00
2023-09-30T03:04:49.154Z,10.30
2023-09-30T03:05:24.778Z,9.70
2023-09-30T03:05:58.832Z,9.10
2023-09-30T03:06:32.825Z,10.20
2023-09-30T03:07:06.728Z,9.20
2023-09-30T03:07:40.216Z,10.00
2023-09-30T03:08:13.733Z,10.20
2023-09-30T03:08:48.201Z,10.40
2023-09-30T03:09:22.184Z,10.20
2023-09-30T03:09:55.638Z,9.60
2023-09-30T03:10:29.117Z,10.00
2023-09-30T03:11:03.466Z,9.50
2023-09-30T03:11:37.042Z,9.40
2023-09-30T03:12:10.706Z,8.70
2023-09-30T03:12:44.228Z,10.10
2023-09-30T03:13:19.870Z,9.50
2023-09-30T03:13:53.826Z,9.70
2023-09-30T03:14:27.329Z,10.20
2023-09-30T03:15:00.742Z,8.80
2023-09-30T03:15:34.886Z,10.20
2023-09-30T03:16:08.297Z,9.10
2023-09-30T03:16:42.840Z,10.40
2023-09-30T03:17:16.310Z,10.00
2023-09-30T03:17:53.437Z,9.70
2023-09-30T03:18:28.056Z,10.70
2023-09-30T03:19:01.530Z,10.30
2023-09-30T03:19:35.109Z,10.80
2023-09-30T03:20:13.387Z,9.40
2023-09-30T03:20:46.963Z,10.30
2023-09-30T03:21:21.340Z,9.60
2023-09-30T03:21:54.727Z,9.90
2023-09-30T03:22:28.499Z,10.60
2023-09-30T03:23:03.452Z,10.50
2023-09-30T03:23:36.959Z,10.90
2023-09-30T03:24:10.873Z,10.90
2023-09-30T03:24:44.419Z,8.90
2023-09-30T03:25:20.001Z,10.40
2023-09-30T03:25:53.337Z,11.20
2023-09-30T03:26:26.713Z,10.20
2023-09-30T03:27:00.043Z,10.30
2023-09-30T03:27:34.986Z,10.80
2023-09-30T03:28:08.985Z,10.80
2023-09-30T03:28:42.315Z,9.50
2023-09-30T03:29:15.666Z,9.80
2023-09-30T03:29:49.007Z,10.90
2023-09-30T03:30:22.593Z,10.60
2023-09-30T03:30:58.007Z,10.10
2023-09-30T03:31:31.677Z,10.70
2023-09-30T03:32:05.558Z,11.10
2023-09-30T03:32:39.829Z,11.50
2023-09-30T03:33:13.632Z,10.80
2023-09-30T03:33:48.101Z,11.20
2023-09-30T03:34:21.825Z,11.20
2023-09-30T03:34:55.219Z,11.00
2023-09-30T03:35:28.555Z,10.30
2023-09-30T03:36:02.042Z,11.10
2023-09-30T03:36:37.087Z,10.80
2023-09-30T16:31:01.150Z,25.60
2023-09-30T16:31:34.774Z,26.30
2023-09-30T16:32:09.279Z,25.20
2023-09-30T16:32:44.714Z,26.30
2023-09-30T16:33:25.773Z,26.40
2023-09-30T16:34:00.905Z,25.10
2023-09-30T16:34:34.829Z,25.50
2023-09-30T16:35:09.474Z,25.10
2023-09-30T16:35:42.959Z,25.20
2023-09-30T16:36:16.590Z,25.00
2023-09-30T16:37:39.757Z,26.10
2023-09-30T16:38:13.074Z,47.50
2023-09-30T16:38:46.871Z,60.80
2023-09-30T16:39:20.387Z,91.80
2023-09-30T16:39:53.743Z,123.50
2023-09-30T16:40:27.347Z,137.90
2023-09-30T16:41:00.948Z,151.60
2023-09-30T16:41:34.517Z,196.00
2023-09-30T16:42:07.875Z,231.50
2023-09-30T16:42:41.266Z,256.10
2023-09-30T16:43:14.979Z,276.30
2023-09-30T16:43:48.270Z,287.90
2023-09-30T16:44:23.116Z,313.60
2023-09-30T16:44:56.670Z,321.80
2023-09-30T16:45:30.236Z,324.10
2023-09-30T16:46:06.098Z,330.80
2023-09-30T16:46:41.343Z,327.60
2023-09-30T16:47:15.324Z,333.20
2023-09-30T16:47:48.846Z,324.60
2023-09-30T16:48:22.303Z,316.20
2023-09-30T16:48:55.695Z,308.00
2023-09-30T16:49:29.193Z,303.00
2023-09-30T16:50:02.857Z,295.10
2023-09-30T16:50:36.784Z,297.50
2023-09-30T16:51:11.460Z,285.80
2023-09-30T16:51:45.396Z,275.60
2023-09-30T16:52:18.770Z,274.80
2023-09-30T16:52:52.176Z,261.90
2023-09-30T16:53:26.186Z,261.70
2023-09-30T16:53:59.629Z,255.10
2023-09-30T16:54:33.200Z,249.40
2023-09-30T16:55:08.899Z,256.30
2023-09-30T16:55:42.236Z,242.50
2023-09-30T17:42:23.686Z,4.50
2023-09-30T17:42:57.486Z,4.20
2023-09-30T17:43:30.993Z,4.60
2023-09-30T17:44:04.510Z,4.40
2023-09-30T17:44:38.395Z,4.30
2023-09-30T17:45:59.935Z,4.10
2023-09-30T17:46:34.427Z,4.20
2023-09-30T17:47:08.518Z,4.00
2023-09-30T17:47:43.723Z,4.20
2023-09-30T17:48:18.234Z,4.30
2023-09-30T17:49:39.921Z,4.20
2023-09-30T17:50:13.615Z,4.00
2023-09-30T17:50:47.709Z,4.40
2023-09-30T17:51:22.133Z,4.30
2023-09-30T17:51:57.250Z,4.40
2023-09-30T17:53:19.857Z,4.40
2023-09-30T17:53:54.356Z,4.40
2023-09-30T17:54:28.140Z,4.90
2023-09-30T17:55:02.234Z,5.50
2023-09-30T17:55:40.203Z,5.20
2023-09-30T17:57:03.015Z,4.40
2023-09-30T17:57:37.162Z,4.50
2023-09-30T17:58:16.230Z,4.40
2023-09-30T17:58:50.813Z,4.90
2023-09-30T17:59:25.080Z,4.30
2023-09-30T18:00:53.890Z,4.60
2023-09-30T18:01:28.032Z,4.40
2023-09-30T18:02:02.603Z,4.10
2023-09-30T18:02:40.817Z,4.50
2023-09-30T18:03:15.557Z,4.90
2023-09-30T18:04:35.027Z,4.80
2023-09-30T18:05:09.842Z,4.80
2023-09-30T18:05:44.733Z,5.10
2023-09-30T18:06:18.718Z,5.10
2023-09-30T18:06:52.830Z,5.00
2023-09-30T18:08:17.815Z,4.90
2023-09-30T18:08:52.140Z,4.90
2023-09-30T18:09:26.190Z,4.50
2023-09-30T18:10:00.237Z,4.70
2023-09-30T18:10:34.897Z,4.70
2023-09-30T18:11:54.584Z,4.40
2023-09-30T18:12:28.309Z,4.50
2023-09-30T18:13:02.961Z,4.50
2023-09-30T18:13:37.424Z,4.20
2023-09-30T18:14:17.511Z,4.30
2023-09-30T18:15:34.174Z,4.40
2023-09-30T18:16:08.913Z,4.60
2023-09-30T18:16:44.571Z,4.20
2023-09-30T18:17:21.034Z,4.80
2023-09-30T18:18:09.359Z,4.50
2023-09-30T18:19:29.637Z,4.60
2023-09-30T18:20:06.619Z,4.30
2023-09-30T18:20:41.834Z,4.50
2023-09-30T18:21:15.474Z,4.60
2023-09-30T18:21:49.428Z,4.10
2023-09-30T18:23:11.980Z,4.80
2023-09-30T18:23:48.005Z,4.90
2023-09-30T18:24:22.269Z,4.90
2023-09-30T18:24:56.466Z,5.20
2023-09-30T18:25:35.410Z,4.40
2023-09-30T18:26:51.583Z,4.70
2023-09-30T18:27:25.354Z,5.00
2023-09-30T18:27:58.958Z,5.20
2023-09-30T18:28:33.194Z,4.90
2023-09-30T18:29:06.930Z,5.20
2023-09-30T18:30:32.429Z,4.70
2023-09-30T18:31:06.397Z,4.80
2023-09-30T18:31:40.408Z,5.30
2023-09-30T18:32:15.240Z,4.80
2023-09-30T18:32:48.851Z,4.80
2023-09-30T18:34:13.682Z,4.70
2023-09-30T18:34:47.532Z,4.90
2023-09-30T18:35:21.348Z,5.00
2023-09-30T18:35:55.351Z,4.50
2023-09-30T18:36:29.351Z,4.80
2023-09-30T18:37:53.625Z,5.00
2023-09-30T18:38:28.331Z,5.20
2023-09-30T18:39:15.340Z,4.50
2023-09-30T18:39:56.498Z,4.70
2023-09-30T18:40:34.324Z,4.80
2023-09-30T18:41:53.009Z,4.70
2023-09-30T18:42:27.565Z,4.80
2023-09-30T18:43:07.283Z,5.00
2023-09-30T18:43:41.446Z,4.50
2023-09-30T18:44:15.566Z,5.10
2023-09-30T18:45:34.975Z,4.50
2023-09-30T18:46:13.696Z,4.40
2023-09-30T18:46:47.952Z,4.90
2023-09-30T18:47:21.757Z,4.10
2023-09-30T18:47:56.355Z,4.50
2023-09-30T18:49:16.298Z,4.60
2023-09-30T18:49:53.013Z,4.60
2023-09-30T18:50:26.726Z,4.70
2023-09-30T18:51:00.711Z,4.50
2023-09-30T18:51:34.831Z,4.60
2023-09-30T18:52:58.037Z,4.60
2023-09-30T18:53:32.066Z,4.70
2023-09-30T18:54:10.880Z,4.60
2023-09-30T18:54:46.101Z,5.00
2023-09-30T18:55:19.569Z,4.60
2023-09-30T18:56:41.830Z,4.60
2023-09-30T18:57:16.220Z,4.40
2023-09-30T18:57:51.114Z,5.00
2023-09-30T18:58:24.897Z,4.60
2023-09-30T18:58:58.895Z,4.80
2023-09-30T19:00:22.368Z,4.30
2023-09-30T19:00:56.532Z,4.70
2023-09-30T19:01:30.384Z,4.60
2023-09-30T19:02:05.228Z,4.40
2023-09-30T19:02:39.008Z,5.00
2023-09-30T19:04:21.767Z,4.40
2023-09-30T19:04:57.091Z,4.90
2023-09-30T19:05:32.122Z,4.30
2023-09-30T19:06:05.732Z,4.60
2023-09-30T19:07:41.407Z,4.90
2023-09-30T19:08:17.141Z,4.40
2023-09-30T19:08:51.142Z,4.50
2023-09-30T19:09:25.246Z,4.30
2023-09-30T19:09:59.845Z,4.20
2023-09-30T19:11:21.334Z,4.50
2023-09-30T19:11:55.352Z,4.50
2023-09-30T19:12:30.233Z,4.60
2023-09-30T19:13:04.732Z,4.30
2023-09-30T19:13:41.499Z,4.70
2023-09-30T19:15:03.047Z,4.50
2023-09-30T19:15:36.661Z,4.50
2023-09-30T19:16:10.890Z,4.70
2023-09-30T19:16:45.053Z,4.40
2023-09-30T19:17:21.761Z,4.40
2023-09-30T19:18:42.907Z,4.60
2023-09-30T19:19:19.664Z,4.40
2023-09-30T19:19:53.486Z,4.10
2023-09-30T19:20:30.383Z,5.00
2023-09-30T19:21:06.302Z,4.20
2023-09-30T19:22:24.614Z,4.60
2023-09-30T19:22:58.492Z,4.60
2023-09-30T19:23:32.930Z,4.80
2023-09-30T19:24:07.129Z,4.40
2023-09-30T19:24:41.007Z,4.20
2023-09-30T19:26:13.038Z,4.30
2023-09-30T19:26:49.641Z,4.10
2023-09-30T19:27:23.527Z,4.30
2023-09-30T19:27:58.851Z,4.30
2023-09-30T19:28:33.379Z,4.20
2023-09-30T19:29:57.994Z,3.90
2023-09-30T19:30:31.642Z,4.30
2023-09-30T19:31:06.970Z,4.40
2023-09-30T19:31:40.816Z,4.30
2023-09-30T19:32:14.653Z,4.50
2023-09-30T19:33:39.211Z,4.00
2023-09-30T19:34:13.454Z,3.90
2023-09-30T19:34:47.308Z,4.20
2023-09-30T19:35:21.102Z,4.30
2023-09-30T19:35:55.121Z,4.10
2023-09-30T19:37:20.209Z,3.90
2023-09-30T19:37:54.104Z,4.00
2023-09-30T19:38:28.095Z,3.90
2023-09-30T19:39:01.893Z,3.90
2023-09-30T19:39:35.475Z,3.90
2023-09-30T19:41:00.489Z,3.90
2023-09-30T19:41:39.762Z,3.90
2023-09-30T19:42:15.585Z,3.80
2023-09-30T19:42:49.433Z,4.00
2023-09-30T19:43:23.282Z,4.00
2023-09-30T19:44:50.009Z,4.30
2023-09-30T19:45:24.847Z,3.80
2023-09-30T19:46:36.734Z,4.10
2023-09-30T19:48:21.106Z,3.90
2023-09-30T19:48:56.510Z,3.60
2023-09-30T19:49:31.775Z,4.10
2023-09-30T19:50:07.170Z,4.10
2023-09-30T19:50:40.740Z,3.90
2023-09-30T19:52:03.542Z,3.90
2023-09-30T19:52:40.220Z,3.70
2023-09-30T19:53:14.269Z,4.10
2023-09-30T19:53:48.071Z,3.90
2023-09-30T19:54:21.590Z,4.30
2023-09-30T19:55:50.327Z,3.90
2023-09-30T19:56:25.116Z,4.20
2023-09-30T19:56:58.999Z,4.10
2023-09-30T19:57:33.934Z,3.90
2023-09-30T19:58:08.312Z,4.30
2023-09-30T19:59:33.149Z,3.80
2023-09-30T20:00:10.648Z,3.90
2023-09-30T20:00:45.049Z,4.00
2023-09-30T20:01:21.507Z,3.70
2023-09-30T20:01:56.424Z,4.30
2023-09-30T20:03:13.456Z,3.70
2023-09-30T20:03:48.018Z,3.90
2023-09-30T20:04:23.124Z,3.60
2023-09-30T20:04:57.978Z,3.90
2023-09-30T20:05:31.647Z,4.00
2023-09-30T20:06:55.470Z,3.80
2023-09-30T20:07:29.899Z,3.70
2023-09-30T20:08:05.712Z,3.80
2023-09-30T20:08:39.399Z,3.70
2023-09-30T20:09:14.226Z,3.60
2023-09-30T20:10:42.173Z,3.80
2023-09-30T20:11:29.049Z,3.70
2023-09-30T20:12:04.640Z,3.70
2023-09-30T20:12:38.748Z,3.40
2023-09-30T20:14:14.491Z,3.70
2023-09-30T20:14:48.842Z,4.00
2023-09-30T20:15:22.782Z,3.90
2023-09-30T20:15:57.119Z,4.10
2023-09-30T20:16:31.316Z,3.70
2023-09-30T20:17:57.475Z,3.80
2023-09-30T20:18:32.929Z,3.70
2023-09-30T20:19:07.035Z,4.00
2023-09-30T20:19:40.993Z,4.00
2023-09-30T20:20:17.975Z,4.10
2023-09-30T20:21:39.950Z,3.80
2023-09-30T20:22:13.830Z,3.60
2023-09-30T20:22:48.116Z,4.10
2023-09-30T20:23:22.384Z,3.60
2023-09-30T20:23:56.463Z,3.90
2023-09-30T20:25:17.484Z,3.90
2023-09-30T20:25:51.324Z,3.90
2023-09-30T20:26:27.253Z,3.80
2023-09-30T20:27:01.494Z,3.70
2023-09-30T20:27:35.690Z,3.80
2023-09-30T20:29:00.397Z,3.80
2023-09-30T20:29:35.915Z,4.00
2023-09-30T20:30:10.989Z,4.00
2023-09-30T20:30:45.227Z,3.70
2023-09-30T20:31:22.671Z,4.20
2023-09-30T20:32:47.262Z,4.10
2023-09-30T20:33:22.420Z,4.10
2023-09-30T20:33:56.749Z,4.00
2023-09-30T20:34:30.765Z,4.10
2023-09-30T20:35:06.413Z,3.90
2023-09-30T20:36:29.161Z,4.10
2023-09-30T20:37:04.969Z,4.20
2023-09-30T20:37:39.636Z,3.70
2023-09-30T20:38:13.301Z,4.20
2023-09-30T20:38:47.130Z,4.00
2023-09-30T20:40:15.314Z,4.30
2023-09-30T20:40:49.524Z,4.50
2023-09-30T20:41:23.575Z,4.00
2023-09-30T20:41:57.680Z,3.90
2023-09-30T20:42:31.671Z,4.30
2023-09-30T20:43:57.921Z,4.50
2023-09-30T20:44:31.871Z,4.40
2023-09-30T20:45:06.864Z,4.70
2023-09-30T20:45:41.255Z,4.20
2023-09-30T20:46:16.597Z,4.20
2023-09-30T20:47:39.040Z,4.20
2023-09-30T20:48:12.720Z,4.20
2023-09-30T20:48:47.193Z,4.40
2023-09-30T20:49:20.859Z,4.50
2023-09-30T20:49:54.665Z,4.10
2023-09-30T20:51:20.372Z,3.90
2023-09-30T20:51:54.498Z,4.20
2023-09-30T20:52:29.219Z,4.10
2023-09-30T20:53:03.909Z,4.00
2023-09-30T20:53:37.914Z,4.00
2023-09-30T20:55:00.600Z,3.90
2023-09-30T20:55:37.977Z,3.90
2023-09-30T20:56:12.532Z,4.00
2023-09-30T20:56:46.805Z,3.90
2023-09-30T20:57:21.079Z,4.00
2023-09-30T20:58:41.033Z,4.00
2023-09-30T20:59:15.611Z,3.70
2023-09-30T20:59:50.336Z,3.90
2023-09-30T21:00:25.594Z,3.80
2023-09-30T21:00:59.759Z,4.10
2023-09-30T21:02:25.171Z,4.20
2023-09-30T21:02:59.217Z,4.10
2023-09-30T21:03:33.390Z,4.20
2023-09-30T21:04:08.227Z,4.20
2023-09-30T21:04:42.905Z,3.90
2023-09-30T21:06:09.740Z,4.10
2023-09-30T21:06:46.140Z,4.60
2023-09-30T21:07:20.487Z,4.20
2023-09-30T21:07:54.639Z,4.30
2023-09-30T21:08:28.983Z,4.40
2023-09-30T21:09:51.063Z,4.40
2023-09-30T21:10:25.676Z,3.90
2023-09-30T21:11:00.095Z,3.90
2023-09-30T21:11:35.349Z,4.00
2023-09-30T21:12:09.148Z,4.20
2023-09-30T21:13:32.546Z,4.00
2023-09-30T21:14:06.964Z,4.40
2023-09-30T21:14:41.336Z,3.80
2023-09-30T21:15:15.097Z,3.80
2023-09-30T21:15:49.527Z,4.00
2023-09-30T21:17:13.432Z,3.60
2023-09-30T21:17:47.802Z,3.90
2023-09-30T21:18:22.193Z,3.50
2023-09-30T21:18:56.001Z,3.50
2023-09-30T21:19:29.851Z,3.90
2023-09-30T21:20:55.215Z,3.60
2023-09-30T21:21:30.537Z,3.80
2023-09-30T21:22:04.399Z,3.70
2023-09-30T21:22:38.873Z,3.70
2023-09-30T21:23:13.325Z,3.70
2023-09-30T21:24:38.045Z,3.60
2023-09-30T21:25:11.545Z,3.80
2023-09-30T21:25:45.933Z,3.80
2023-09-30T21:26:20.333Z,3.60
2023-09-30T21:26:54.314Z,3.70
2023-09-30T21:28:19.310Z,3.70
2023-09-30T21:28:53.329Z,3.80
2023-09-30T21:29:27.623Z,3.70
2023-09-30T21:30:01.778Z,3.40
2023-09-30T21:30:38.463Z,3.30
2023-09-30T21:32:08.248Z,3.40
2023-09-30T21:32:41.951Z,3.50
2023-09-30T21:33:16.281Z,3.80
2023-09-30T21:33:51.067Z,3.60
2023-09-30T21:34:25.161Z,3.60
2023-09-30T21:35:42.444Z,3.30
2023-09-30T21:36:17.432Z,3.70
2023-09-30T21:36:51.405Z,3.80
2023-09-30T21:37:25.408Z,3.70
2023-09-30T21:37:59.578Z,3.80
2023-09-30T21:39:24.615Z,3.80
2023-09-30T21:39:58.509Z,3.80
2023-09-30T21:40:32.404Z,3.80
2023-09-30T21:41:12.791Z,3.70
2023-09-30T21:41:46.789Z,3.60
2023-09-30T21:43:04.870Z,3.80
2023-09-30T21:43:38.544Z,3.80
2023-09-30T21:44:14.035Z,3.70
2023-09-30T21:44:48.069Z,3.90
2023-09-30T21:45:21.856Z,3.30
2023-09-30T21:46:47.234Z,3.50
2023-09-30T21:47:21.367Z,3.40
2023-09-30T21:47:55.273Z,3.60
2023-09-30T21:48:30.801Z,3.70
2023-09-30T21:49:04.608Z,3.80
2023-09-30T21:50:25.122Z,3.60
2023-09-30T21:51:00.096Z,3.70
2023-09-30T21:51:33.926Z,3.50
2023-09-30T21:52:08.573Z,3.60
2023-09-30T21:52:42.309Z,3.70
2023-09-30T21:54:06.167Z,3.50
2023-09-30T21:54:39.783Z,3.60
2023-09-30T21:55:13.576Z,3.40
2023-09-30T21:55:47.018Z,3.30
2023-09-30T21:56:20.856Z,3.50
2023-09-30T21:57:46.536Z,3.80
2023-09-30T21:58:20.708Z,3.70
2023-09-30T21:58:54.813Z,3.60
2023-09-30T21:59:28.573Z,3.40
2023-09-30T22:00:02.268Z,3.70
2023-09-30T22:01:33.697Z,3.80
2023-09-30T22:02:07.899Z,3.80
2023-09-30T22:02:42.496Z,3.60
2023-09-30T22:03:22.699Z,3.30
2023-09-30T22:05:07.573Z,3.90
2023-09-30T22:05:51.473Z,3.50
2023-09-30T22:06:25.602Z,3.90
2023-09-30T22:07:00.466Z,3.50
2023-09-30T22:07:35.536Z,3.50
2023-09-30T22:08:52.427Z,3.50
2023-09-30T22:09:26.406Z,3.80
2023-09-30T22:10:00.423Z,3.60
2023-09-30T22:10:34.785Z,3.80
2023-09-30T22:11:08.702Z,3.40
2023-09-30T22:12:32.837Z,3.50
2023-09-30T22:13:06.487Z,3.60
2023-09-30T22:13:40.046Z,3.40
2023-09-30T22:14:13.897Z,3.50
2023-09-30T22:14:47.425Z,3.70
2023-09-30T22:16:13.272Z,3.30
2023-09-30T22:16:47.154Z,3.40
2023-09-30T22:17:22.559Z,4.10
2023-09-30T22:17:56.550Z,3.80
2023-09-30T22:18:30.097Z,3.70
2023-09-30T22:19:54.046Z,3.40
2023-09-30T22:20:28.571Z,3.60
2023-09-30T22:21:02.803Z,3.60
2023-09-30T22:21:36.664Z,3.60
2023-09-30T22:22:13.297Z,4.00
2023-09-30T22:23:33.160Z,3.80
2023-09-30T22:24:08.483Z,3.40
2023-09-30T22:24:42.514Z,3.80
2023-09-30T22:25:16.639Z,3.70